Time;durP1;ratioP1;P1;durP2;ratioP2;P2;SDS_P1;SDS_P2;PMS_P1;PMS_P2;Temp;Humidity;BMP_temperature;BMP_pressure;BME280_temperature;BME280_humidity;BME280_pressure;Samples;Min_cycle;Max_cycle;Signal;HPM_P1;HPM_P2
2022/01/22 00:00:44;;;;;;;6.53;3.30;;;;;;;-2.24;99.79;-23751.56;5078413;28;20257;-72
2022/01/22 00:03:10;;;;;;;5.00;3.40;;;;;;;-2.30;100.00;-23750.00;5077931;28;20186;-73
2022/01/22 00:05:36;;;;;;;7.27;3.73;;;;;;;-2.25;100.00;-23751.28;5073816;28;20238;-71
2022/01/22 00:08:02;;;;;;;6.60;3.33;;;;;;;-2.16;100.00;-23753.72;5056890;28;20186;-72
2022/01/22 00:10:27;;;;;;;7.33;3.07;;;;;;;-1.88;100.00;-23761.78;5076878;28;20239;-73
2022/01/22 00:15:21;;;;;;;5.87;3.53;;;;;;;-2.17;99.02;-23753.44;5074024;28;20560;-71
2022/01/22 00:17:48;;;;;;;6.80;3.20;;;;;;;-1.69;98.42;-23767.06;5077381;28;20186;-72
2022/01/22 00:20:15;;;;;;;6.33;3.20;;;;;;;-1.63;97.61;-23768.81;5074597;28;20177;-72
2022/01/22 00:22:42;;;;;;;8.90;3.63;;;;;;;-2.08;96.79;-23756.16;5072041;28;20634;-74
2022/01/22 00:25:10;;;;;;;7.27;3.00;;;;;;;-1.75;96.77;-23765.34;5070395;28;20177;-74
2022/01/22 00:27:41;;;;;;;7.23;3.23;;;;;;;-2.19;97.86;-23753.00;5080732;28;20718;-73
2022/01/22 00:30:13;;;;;;;5.37;3.47;;;;;;;-1.81;98.18;-23763.78;5074443;28;20252;-73
2022/01/22 00:32:38;;;;;;;8.00;3.47;;;;;;;-2.30;98.03;-23750.00;5091796;28;20261;-71
2022/01/22 00:35:05;;;;;;;4.57;3.03;;;;;;;-2.29;98.91;-23750.28;5086508;28;20174;-71
2022/01/22 00:37:32;;;;;;;5.30;3.30;;;;;;;-2.23;98.01;-23751.88;5071960;28;20162;-71
2022/01/22 00:39:58;;;;;;;4.03;3.10;;;;;;;-2.06;98.54;-23756.75;5055836;28;20604;-71
2022/01/22 00:42:24;;;;;;;6.20;3.70;;;;;;;-2.40;98.24;-23746.97;5057617;28;20189;-71
2022/01/22 00:44:51;;;;;;;6.23;3.33;;;;;;;-2.59;98.54;-23741.53;5081514;28;20178;-71
2022/01/22 00:47:20;;;;;;;7.87;3.93;;;;;;;-1.98;98.41;-23759.03;5092127;28;20208;-71
2022/01/22 00:49:58;;;;;;;6.33;3.67;;;;;;;-2.07;99.56;-23756.47;5078779;28;20195;-71
2022/01/22 00:52:37;;;;;;;7.40;3.73;;;;;;;-2.65;99.03;-23739.94;5080588;28;20708;-71
2022/01/22 00:55:02;;;;;;;7.43;3.43;;;;;;;-2.65;97.86;-23739.94;5081232;28;20193;-72
2022/01/22 00:57:28;;;;;;;6.43;3.60;;;;;;;-2.13;95.60;-23754.75;5075124;28;20181;-72
2022/01/22 00:59:54;;;;;;;6.13;4.10;;;;;;;-2.13;94.95;-23754.59;5076967;28;20186;-72
2022/01/22 01:02:19;;;;;;;8.03;3.50;;;;;;;-2.32;94.87;-23749.28;5072248;28;20220;-72
2022/01/22 01:04:45;;;;;;;5.47;3.50;;;;;;;-2.55;94.20;-23742.81;5077380;28;20249;-72
2022/01/22 01:07:10;;;;;;;5.73;3.50;;;;;;;-2.08;93.76;-23756.03;5071308;28;20205;-72
2022/01/22 01:09:38;;;;;;;6.40;3.47;;;;;;;-2.25;92.56;-23751.28;5063205;28;20714;-72
2022/01/22 01:12:07;;;;;;;5.77;3.50;;;;;;;-2.05;92.79;-23757.03;5075984;28;20700;-72
2022/01/22 01:14:40;;;;;;;5.37;3.43;;;;;;;-2.16;92.76;-23753.72;5073175;28;20532;-72
2022/01/22 01:17:22;;;;;;;6.70;3.90;;;;;;;-2.18;92.15;-23753.16;5066352;28;20182;-72
2022/01/22 01:33:41;;;;;;;9.03;6.00;;;;;;;-2.98;96.94;-23730.59;5076193;28;20192;-71
2022/01/22 01:36:07;;;;;;;10.70;6.03;;;;;;;-2.68;96.79;-23739.06;5076487;28;20250;-72
2022/01/22 01:38:39;;;;;;;9.30;5.00;;;;;;;-2.60;96.40;-23741.22;5074337;28;20198;-72
2022/01/22 01:41:20;;;;;;;9.03;4.90;;;;;;;-2.36;96.29;-23748.28;5073729;28;20661;-72
2022/01/22 01:43:45;;;;;;;7.30;4.60;;;;;;;-2.65;96.41;-23739.94;5077186;28;20201;-73
2022/01/22 01:46:12;;;;;;;6.70;4.03;;;;;;;-2.69;95.92;-23738.94;5076613;28;20256;-72
2022/01/22 01:48:41;;;;;;;6.63;3.80;;;;;;;-3.01;95.30;-23729.75;5076640;28;20181;-72
2022/01/22 01:51:07;;;;;;;6.33;3.80;;;;;;;-2.98;95.42;-23730.44;5072740;28;20565;-72
2022/01/22 01:58:55;;;;;;;5.90;3.43;;;;;;;-2.42;92.58;-23746.56;5077861;28;20284;-72
2022/01/22 02:01:21;;;;;;;5.47;3.23;;;;;;;-2.43;91.87;-23746.13;5058331;28;20173;-72
2022/01/22 02:03:46;;;;;;;5.93;3.30;;;;;;;-2.66;91.60;-23739.66;5075663;28;20191;-72
2022/01/22 02:06:11;;;;;;;3.83;3.23;;;;;;;-2.58;92.43;-23741.81;5080768;28;20309;-72
2022/01/22 02:08:37;;;;;;;6.07;3.60;;;;;;;-2.36;92.72;-23748.28;5081892;28;20238;-73
2022/01/22 02:11:04;;;;;;;5.80;3.50;;;;;;;-2.82;92.28;-23735.19;5083133;28;20181;-72
2022/01/22 02:24:53;;;;;;;6.53;3.13;;;;;;;-2.65;93.40;-23739.94;5075379;28;20640;-72
2022/01/22 02:27:19;;;;;;;5.90;3.20;;;;;;;-2.41;92.38;-23746.69;5077030;28;20241;-73
2022/01/22 02:29:45;;;;;;;5.57;3.50;;;;;;;-2.32;91.95;-23749.28;5067978;28;20608;-72
2022/01/22 02:35:03;;;;;;;4.87;3.43;;;;;;;-2.30;90.55;-23750.00;5076316;28;20207;-72
2022/01/22 02:37:35;;;;;;;5.00;3.47;;;;;;;-2.21;90.63;-23752.44;5080319;28;20250;-72
2022/01/22 02:40:08;;;;;;;7.10;3.90;;;;;;;-2.59;90.29;-23741.53;5081582;28;20239;-72
2022/01/22 02:42:35;;;;;;;7.03;3.40;;;;;;;-2.17;90.83;-23753.59;5081512;28;20253;-72
2022/01/22 02:45:07;;;;;;;5.67;3.50;;;;;;;-2.69;90.61;-23738.94;5080814;28;20176;-73
2022/01/22 02:47:33;;;;;;;4.43;3.20;;;;;;;-2.37;90.85;-23748.00;5079801;28;20209;-72
2022/01/22 02:49:58;;;;;;;4.93;3.50;;;;;;;-2.31;90.79;-23749.72;5083300;28;20688;-72
2022/01/22 02:52:24;;;;;;;6.03;3.47;;;;;;;-2.10;91.46;-23755.59;5079903;28;20184;-73
2022/01/22 02:54:50;;;;;;;6.70;3.60;;;;;;;-2.13;91.25;-23754.75;5078704;28;20242;-71
2022/01/22 02:57:16;;;;;;;6.43;3.43;;;;;;;-2.32;92.52;-23749.28;5081699;28;20185;-71
2022/01/22 02:59:42;;;;;;;5.57;3.80;;;;;;;-2.13;92.38;-23754.75;5079473;28;20178;-72
2022/01/22 03:02:12;;;;;;;5.83;3.47;;;;;;;-2.68;93.95;-23739.06;5077864;28;20235;-71
2022/01/22 03:04:37;;;;;;;6.83;3.33;;;;;;;-2.25;93.99;-23751.28;5063356;28;20221;-71
2022/01/22 03:07:03;;;;;;;6.93;3.93;;;;;;;-2.83;94.19;-23734.78;5080527;28;20205;-72
2022/01/22 03:09:31;;;;;;;9.13;3.40;;;;;;;-2.37;95.54;-23748.00;5081084;28;20660;-71
2022/01/22 03:22:18;;;;;;;6.17;3.40;;;;;;;-2.91;95.57;-23732.59;5074708;28;20216;-72
2022/01/22 03:27:30;;;;;;;4.20;3.10;;;;;;;-2.51;94.91;-23743.97;5081139;28;20266;-71
2022/01/22 03:29:56;;;;;;;5.07;3.30;;;;;;;-2.36;94.21;-23748.28;5079347;28;20174;-72
2022/01/22 03:32:27;;;;;;;4.57;3.33;;;;;;;-2.76;93.34;-23736.91;5082709;28;20621;-71
2022/01/22 03:37:21;;;;;;;6.40;3.67;;;;;;;-2.59;92.65;-23741.53;5091923;28;20242;-71
2022/01/22 03:39:47;;;;;;;6.77;3.50;;;;;;;-2.61;93.29;-23741.09;5082055;28;20183;-72
2022/01/22 03:42:12;;;;;;;4.70;3.70;;;;;;;-2.48;93.32;-23744.81;5080906;28;20188;-73
2022/01/22 03:44:38;;;;;;;4.63;3.53;;;;;;;-2.36;93.78;-23748.13;5075101;28;20193;-72
2022/01/22 03:47:04;;;;;;;6.57;4.00;;;;;;;-2.41;93.82;-23746.69;5080507;28;20727;-71
2022/01/22 03:49:30;;;;;;;8.17;3.97;;;;;;;-2.85;94.03;-23734.34;5077420;28;20536;-71
2022/01/22 03:51:56;;;;;;;7.97;4.10;;;;;;;-2.33;93.91;-23749.13;5082403;28;20212;-71
2022/01/22 03:54:22;;;;;;;8.30;3.87;;;;;;;-2.51;93.85;-23743.81;5081183;28;20177;-72
2022/01/22 03:56:48;;;;;;;7.57;4.30;;;;;;;-2.48;94.06;-23744.69;5077595;28;20181;-71
2022/01/22 03:59:15;;;;;;;5.43;4.10;;;;;;;-2.45;92.87;-23745.69;5077328;28;20183;-71
2022/01/22 04:04:24;;;;;;;5.03;3.60;;;;;;;-2.78;93.29;-23736.34;5075641;28;20501;-72
2022/01/22 04:09:37;;;;;;;7.00;4.13;;;;;;;-2.43;94.17;-23746.13;5079714;28;20181;-71
2022/01/22 04:12:03;;;;;;;10.40;3.93;;;;;;;-2.46;93.89;-23745.25;5081902;28;20185;-72
2022/01/22 04:14:32;;;;;;;7.00;3.53;;;;;;;-2.48;95.05;-23744.81;5082421;28;20182;-72
2022/01/22 04:25:08;;;;;;;18.27;4.97;;;;;;;-2.78;98.52;-23736.34;5080061;28;20185;-71
2022/01/22 04:27:33;;;;;;;6.73;4.07;;;;;;;-3.14;99.39;-23726.00;5071490;28;20217;-71
2022/01/22 04:30:00;;;;;;;8.00;4.33;;;;;;;-3.10;98.18;-23727.00;5091993;28;20578;-72
2022/01/22 04:32:30;;;;;;;5.50;4.10;;;;;;;-3.08;99.20;-23727.72;5086741;28;20191;-71
2022/01/22 04:34:57;;;;;;;7.73;4.17;;;;;;;-2.70;97.85;-23738.50;5076415;28;20191;-71
2022/01/22 04:37:24;;;;;;;7.57;3.80;;;;;;;-3.17;98.34;-23725.13;5074945;28;20185;-72
2022/01/22 04:39:50;;;;;;;5.03;4.23;;;;;;;-2.64;99.46;-23740.09;5079620;28;20275;-72
2022/01/22 04:42:17;;;;;;;6.63;4.20;;;;;;;-2.86;100.00;-23733.91;5080813;28;20182;-71
2022/01/22 04:44:55;;;;;;;7.33;4.40;;;;;;;-2.73;100.00;-23737.78;5080554;28;20189;-72
2022/01/22 04:55:34;;;;;;;6.23;4.10;;;;;;;-3.30;99.90;-23721.41;5077360;28;20239;-73
2022/01/22 04:58:03;;;;;;;7.63;4.10;;;;;;;-2.88;100.00;-23733.31;5079289;28;20216;-73
2022/01/22 05:00:31;;;;;;;6.07;3.80;;;;;;;-3.39;99.82;-23718.81;5074276;28;20174;-73
2022/01/22 05:02:58;;;;;;;5.97;3.47;;;;;;;-3.17;99.67;-23725.28;5075321;28;20560;-73
2022/01/22 05:05:23;;;;;;;5.63;3.77;;;;;;;-3.05;99.42;-23728.59;5078167;28;20221;-72
2022/01/22 05:07:49;;;;;;;8.23;4.57;;;;;;;-3.48;99.20;-23716.38;5091286;28;20212;-72
2022/01/22 05:10:14;;;;;;;5.77;3.93;;;;;;;-3.40;99.22;-23718.53;5081380;28;20193;-72
2022/01/22 05:12:39;;;;;;;6.43;3.57;;;;;;;-3.60;100.00;-23713.06;5073078;28;20232;-72
2022/01/22 05:15:06;;;;;;;8.10;4.07;;;;;;;-3.38;98.21;-23719.25;5078029;28;20187;-73
2022/01/22 05:17:35;;;;;;;5.07;3.80;;;;;;;-3.02;97.33;-23729.44;5078784;28;20188;-71
2022/01/22 05:20:15;;;;;;;4.77;3.40;;;;;;;-2.81;96.81;-23735.34;5081551;28;20228;-72
2022/01/22 05:25:16;;;;;;;5.83;3.90;;;;;;;-2.84;96.34;-23734.47;5076708;28;20210;-72
2022/01/22 05:30:35;;;;;;;9.00;3.80;;;;;;;-2.76;93.98;-23736.91;5075113;28;20180;-71
2022/01/22 05:33:26;;;;;;;6.30;4.07;;;;;;;-2.75;94.15;-23737.22;5079836;28;20196;-73
2022/01/22 05:38:34;;;;;;;6.43;3.70;;;;;;;-3.00;93.54;-23730.03;5078292;28;20216;-72
2022/01/22 05:40:59;;;;;;;6.10;3.90;;;;;;;-2.72;92.78;-23738.06;5083118;28;20190;-73
2022/01/22 05:43:26;;;;;;;9.40;4.10;;;;;;;-2.58;93.81;-23741.94;5080902;28;20303;-72
2022/01/22 05:45:52;;;;;;;7.60;4.27;;;;;;;-2.95;94.08;-23731.47;5075873;28;20220;-72
2022/01/22 05:48:18;;;;;;;10.17;5.33;;;;;;;-3.02;94.17;-23729.44;5083883;28;20272;-73
2022/01/22 05:50:57;;;;;;;10.77;5.30;;;;;;;-2.77;94.33;-23736.50;5075778;28;20657;-73
2022/01/22 06:01:10;;;;;;;9.27;4.73;;;;;;;-2.89;94.96;-23733.19;5081573;28;20242;-74
2022/01/22 06:03:36;;;;;;;13.23;5.90;;;;;;;-3.17;95.12;-23725.13;5061281;28;20605;-74
2022/01/22 06:06:01;;;;;;;8.37;5.50;;;;;;;-2.73;95.18;-23737.78;5081035;28;20312;-74
2022/01/22 06:08:33;;;;;;;9.97;5.67;;;;;;;-2.98;95.34;-23730.44;5057385;28;20700;-74
2022/01/22 06:11:06;;;;;;;9.97;4.57;;;;;;;-2.57;94.91;-23742.25;5069910;28;20186;-75
2022/01/22 06:13:43;;;;;;;7.17;3.83;;;;;;;-2.67;94.24;-23739.50;5084452;28;20189;-74
2022/01/22 06:16:12;;;;;;;7.10;4.40;;;;;;;-2.95;94.20;-23731.47;5094255;28;20165;-73
2022/01/22 06:18:38;;;;;;;6.00;4.27;;;;;;;-2.99;94.00;-23730.31;5078109;28;20213;-73
2022/01/22 06:21:05;;;;;;;5.07;4.07;;;;;;;-3.13;93.40;-23726.28;5056496;28;20216;-73
2022/01/22 06:23:30;;;;;;;5.60;3.90;;;;;;;-2.53;94.02;-23743.38;5074077;28;20189;-73
2022/01/22 06:26:00;;;;;;;6.17;4.23;;;;;;;-2.60;95.41;-23741.22;5078352;28;20216;-74
2022/01/22 06:28:30;;;;;;;8.40;4.50;;;;;;;-2.47;95.42;-23745.13;5085018;28;20765;-74
2022/01/22 06:30:57;;;;;;;9.40;5.30;;;;;;;-2.40;94.73;-23746.97;5057865;28;20206;-73
2022/01/22 06:33:23;;;;;;;9.90;5.83;;;;;;;-2.44;94.70;-23745.81;5094655;28;20173;-74
2022/01/22 06:35:49;;;;;;;10.93;6.37;;;;;;;-2.53;93.58;-23743.25;5086796;28;20242;-73
2022/01/22 06:38:16;;;;;;;14.33;6.90;;;;;;;-2.21;92.24;-23752.44;5056499;28;20186;-73
2022/01/22 06:43:08;;;;;;;11.57;7.30;;;;;;;-2.16;90.19;-23753.88;5073616;28;20186;-74
2022/01/22 06:45:33;;;;;;;13.90;7.30;;;;;;;-2.20;91.52;-23752.72;5073703;28;20170;-74
2022/01/22 06:47:59;;;;;;;14.23;7.37;;;;;;;-1.97;90.71;-23759.19;5056052;28;20287;-74
2022/01/22 06:50:25;;;;;;;16.40;6.73;;;;;;;-1.65;90.06;-23768.38;5072956;28;20285;-74
2022/01/22 06:52:55;;;;;;;12.77;6.87;;;;;;;-1.71;89.82;-23766.50;5084844;28;20265;-73
2022/01/22 06:55:39;;;;;;;10.47;5.47;;;;;;;-1.66;86.63;-23768.09;5059026;28;20189;-74
2022/01/22 06:58:04;;;;;;;8.97;4.60;;;;;;;-1.40;86.20;-23775.53;5079415;28;20708;-74
2022/01/22 07:00:30;;;;;;;6.73;4.47;;;;;;;-1.34;85.44;-23777.25;5081365;28;20192;-73
2022/01/22 07:02:55;;;;;;;11.13;5.10;;;;;;;-1.22;84.66;-23780.44;5060810;28;20671;-74
2022/01/22 07:05:21;;;;;;;9.77;4.67;;;;;;;-1.08;83.66;-23784.59;5079187;28;20650;-73
2022/01/22 07:07:46;;;;;;;7.97;4.20;;;;;;;-1.32;83.70;-23777.69;5062795;28;20216;-74
2022/01/22 07:10:12;;;;;;;8.13;3.73;;;;;;;-0.92;83.19;-23789.16;5081130;28;20661;-74
2022/01/22 07:12:37;;;;;;;5.97;3.73;;;;;;;-0.96;83.10;-23787.88;5080954;28;20190;-74
2022/01/22 07:15:04;;;;;;;7.53;4.07;;;;;;;-0.95;82.81;-23788.31;5062873;28;20184;-74
2022/01/22 07:17:35;;;;;;;5.83;4.00;;;;;;;-0.77;82.09;-23793.19;5061156;28;20187;-75
2022/01/22 07:20:03;;;;;;;9.43;3.57;;;;;;;-0.92;82.96;-23789.03;5057427;28;20645;-74
2022/01/22 07:22:37;;;;;;;8.77;4.00;;;;;;;-1.03;83.42;-23785.88;5078582;28;20185;-74
2022/01/22 07:25:02;;;;;;;8.50;3.87;;;;;;;-0.88;82.07;-23790.19;5075707;28;20178;-75
2022/01/22 07:27:28;;;;;;;6.43;3.70;;;;;;;-0.94;81.85;-23788.47;5080309;28;20256;-75
2022/01/22 07:29:53;;;;;;;9.80;3.70;;;;;;;-0.85;82.12;-23790.91;5063228;28;20190;-75
2022/01/22 07:32:28;;;;;;;7.57;4.13;;;;;;;-0.71;81.67;-23794.91;5068666;28;20187;-74
2022/01/22 07:34:54;;;;;;;7.00;4.03;;;;;;;-0.54;81.00;-23799.91;5062259;28;20270;-73
2022/01/22 07:37:20;;;;;;;10.47;4.37;;;;;;;-0.66;81.29;-23796.47;5079970;28;20218;-73
2022/01/22 07:39:45;;;;;;;8.20;4.27;;;;;;;-0.41;81.49;-23803.50;5073646;28;20279;-74
2022/01/22 07:42:11;;;;;;;9.20;3.70;;;;;;;-0.65;81.95;-23796.63;5065191;28;20695;-72
2022/01/22 07:44:36;;;;;;;8.13;4.20;;;;;;;-0.68;82.96;-23795.75;5071518;28;20195;-73
2022/01/22 07:47:02;;;;;;;6.93;3.97;;;;;;;-0.36;82.44;-23804.78;5084023;28;20293;-72
2022/01/22 07:49:28;;;;;;;8.93;3.53;;;;;;;-0.70;82.45;-23795.34;5054657;28;20201;-73
2022/01/22 07:51:53;;;;;;;13.90;4.73;;;;;;;-0.77;83.39;-23793.19;5083460;28;20209;-75
2022/01/22 07:54:21;;;;;;;7.67;4.20;;;;;;;-0.20;83.59;-23809.53;5059381;28;20555;-73
2022/01/22 07:56:47;;;;;;;8.73;3.90;;;;;;;-0.08;83.02;-23812.81;5084295;28;20668;-73
2022/01/22 07:59:12;;;;;;;9.77;3.67;;;;;;;0.17;82.10;-23819.84;5059741;28;20272;-75
2022/01/22 08:01:38;;;;;;;8.67;3.90;;;;;;;0.12;81.56;-23818.41;5063175;28;20184;-74
2022/01/22 08:04:03;;;;;;;5.30;3.33;;;;;;;-0.02;82.59;-23814.69;5077821;28;20269;-74
2022/01/22 08:06:29;;;;;;;9.90;4.13;;;;;;;-0.55;82.46;-23799.50;5055731;28;20695;-73
2022/01/22 08:08:54;;;;;;;6.70;3.83;;;;;;;0.06;82.07;-23816.81;5078387;28;20191;-74
2022/01/22 08:11:20;;;;;;;9.57;3.80;;;;;;;0.05;81.41;-23816.41;5074134;28;20659;-73
2022/01/22 08:13:45;;;;;;;10.27;3.60;;;;;;;0.02;82.70;-23815.69;5080919;28;20259;-72
2022/01/22 08:16:10;;;;;;;7.43;4.10;;;;;;;0.48;81.15;-23828.56;5081223;28;20265;-73
2022/01/22 08:18:36;;;;;;;7.93;4.03;;;;;;;0.09;81.81;-23817.53;5073980;28;20244;-74
2022/01/22 08:21:01;;;;;;;10.63;5.47;;;;;;;0.13;81.66;-23818.84;5078457;28;20173;-74
2022/01/22 08:23:27;;;;;;;10.60;4.67;;;;;;;0.31;81.32;-23823.84;5067470;28;20183;-72
2022/01/22 08:25:53;;;;;;;11.90;4.97;;;;;;;0.12;82.89;-23818.41;5075836;28;20717;-72
2022/01/22 08:31:15;;;;;;;12.20;5.00;;;;;;;-0.03;81.46;-23814.25;5076190;28;20238;-71
2022/01/22 08:36:24;;;;;;;12.73;4.90;;;;;;;0.42;82.85;-23827.00;4622362;28;20700;-74
2022/01/22 08:38:50;;;;;;;10.67;4.63;;;;;;;0.68;80.60;-23834.44;4602151;28;20907;-74
2022/01/22 08:41:15;;;;;;;9.30;4.50;;;;;;;0.99;79.54;-23843.16;5044766;28;20197;-73
2022/01/22 08:43:41;;;;;;;15.83;5.00;;;;;;;1.02;79.62;-23843.88;5054428;28;20609;-73
2022/01/22 08:46:06;;;;;;;7.80;4.10;;;;;;;0.79;79.25;-23837.44;5064812;28;20294;-75
2022/01/22 08:48:32;;;;;;;6.53;4.70;;;;;;;0.91;78.98;-23840.72;5073061;28;20189;-73
2022/01/22 08:50:57;;;;;;;10.10;4.47;;;;;;;1.17;78.61;-23848.16;5056091;28;20178;-74
2022/01/22 08:53:23;;;;;;;8.93;5.00;;;;;;;0.95;78.91;-23841.88;5071401;28;20644;-74
2022/01/22 08:55:48;;;;;;;9.67;4.77;;;;;;;1.23;78.57;-23849.88;5071325;28;20636;-76
2022/01/22 08:58:14;;;;;;;10.20;5.20;;;;;;;1.16;78.51;-23847.88;5053477;28;20543;-74
2022/01/22 09:00:39;;;;;;;9.17;4.43;;;;;;;0.89;78.63;-23840.44;5071287;28;20257;-74
2022/01/22 09:03:06;;;;;;;8.60;4.43;;;;;;;1.65;78.48;-23861.75;5071209;28;20691;-76
2022/01/22 09:05:35;;;;;;;8.03;4.77;;;;;;;1.55;76.28;-23859.03;5053461;28;20256;-78
2022/01/22 09:08:02;;;;;;;7.27;4.67;;;;;;;1.41;76.15;-23855.03;5055171;28;20209;-75
2022/01/22 09:10:27;;;;;;;9.10;4.60;;;;;;;1.31;76.57;-23852.31;5074929;28;20170;-75
2022/01/22 09:12:53;;;;;;;9.60;4.40;;;;;;;1.17;76.37;-23848.16;5062914;28;20196;-75
2022/01/22 09:15:18;;;;;;;10.87;5.00;;;;;;;1.75;76.49;-23864.59;5090054;28;20192;-75
2022/01/22 09:17:48;;;;;;;5.70;3.70;;;;;;;1.84;76.34;-23867.19;5067746;28;20271;-77
2022/01/22 09:20:30;;;;;;;5.13;3.47;;;;;;;1.87;76.16;-23868.03;5077066;28;20262;-75
2022/01/22 09:22:55;;;;;;;5.10;2.93;;;;;;;2.00;75.33;-23871.59;5091260;28;20191;-75
2022/01/22 09:25:20;;;;;;;5.27;2.60;;;;;;;1.77;75.13;-23865.16;5073266;28;20198;-76
2022/01/22 09:27:46;;;;;;;6.73;2.97;;;;;;;1.84;74.36;-23867.03;5072950;28;20217;-76
2022/01/22 09:30:11;;;;;;;8.00;3.47;;;;;;;1.66;75.49;-23862.03;5073280;28;20178;-76
2022/01/22 09:32:37;;;;;;;4.80;2.90;;;;;;;1.83;75.17;-23866.75;5091178;28;20179;-74
2022/01/22 09:35:02;;;;;;;11.77;2.70;;;;;;;2.03;74.31;-23872.59;5063993;28;20186;-74
2022/01/22 09:37:28;;;;;;;3.40;2.70;;;;;;;1.50;74.89;-23857.59;5070810;28;20559;-74
2022/01/22 09:39:53;;;;;;;7.37;2.67;;;;;;;2.07;76.29;-23873.59;5053011;28;20193;-74
2022/01/22 09:42:18;;;;;;;4.13;2.30;;;;;;;2.05;72.04;-23873.16;5052799;28;20178;-75
2022/01/22 09:44:44;;;;;;;5.10;2.90;;;;;;;1.78;71.52;-23865.59;5071013;28;20195;-75
2022/01/22 09:47:11;;;;;;;4.67;2.70;;;;;;;2.05;70.76;-23873.03;5052887;28;20296;-75
2022/01/22 09:49:37;;;;;;;4.80;2.77;;;;;;;1.95;70.39;-23870.16;5052856;28;20700;-73
2022/01/22 09:52:03;;;;;;;6.80;3.00;;;;;;;2.26;68.73;-23879.03;5056780;28;20246;-74
2022/01/22 09:54:28;;;;;;;4.97;3.13;;;;;;;2.02;68.79;-23872.16;5052542;28;20175;-74
2022/01/22 09:56:57;;;;;;;7.77;3.00;;;;;;;1.99;70.38;-23871.47;5070057;28;20393;-75
2022/01/22 09:59:22;;;;;;;5.27;3.00;;;;;;;1.84;69.83;-23867.19;5070373;28;20177;-75
2022/01/22 10:01:48;;;;;;;4.00;2.70;;;;;;;2.18;69.35;-23876.75;5070761;28;20180;-73
2022/01/22 10:04:14;;;;;;;7.03;3.47;;;;;;;2.01;69.47;-23871.88;5070326;28;20169;-72
2022/01/22 10:06:52;;;;;;;5.87;3.00;;;;;;;2.36;69.19;-23881.88;5070266;28;20265;-71
2022/01/22 10:09:26;;;;;;;3.70;2.63;;;;;;;2.50;68.00;-23885.88;5070856;28;20233;-72
2022/01/22 10:12:11;;;;;;;9.50;2.90;;;;;;;2.47;69.41;-23885.03;5070494;28;20161;-72
2022/01/22 10:15:05;;;;;;;4.40;2.53;;;;;;;2.77;66.85;-23893.44;5070296;28;20172;-71
2022/01/22 10:17:45;;;;;;;4.13;2.77;;;;;;;2.65;66.83;-23890.16;5070368;28;20176;-73
2022/01/22 10:20:29;;;;;;;4.83;2.77;;;;;;;2.61;66.08;-23889.03;5070298;28;20263;-72
2022/01/22 10:23:00;;;;;;;6.03;3.10;;;;;;;2.74;66.00;-23892.44;5070471;28;20180;-73
2022/01/22 10:25:36;;;;;;;4.33;2.80;;;;;;;3.01;64.61;-23900.16;5053276;28;20272;-75
2022/01/22 10:28:22;;;;;;;5.73;2.50;;;;;;;2.93;64.87;-23898.00;5056136;28;20202;-74
2022/01/22 10:30:54;;;;;;;8.47;3.33;;;;;;;2.91;65.76;-23897.44;5073893;28;20185;-72
2022/01/22 10:33:34;;;;;;;4.40;2.80;;;;;;;3.11;66.68;-23903.00;5073913;28;20172;-74
2022/01/22 10:36:16;;;;;;;6.47;2.90;;;;;;;3.22;64.21;-23906.13;5074075;28;20166;-74
2022/01/22 10:38:48;;;;;;;4.77;2.80;;;;;;;3.03;64.56;-23900.72;5073571;28;20335;-72
2022/01/22 10:41:16;;;;;;;2.97;2.57;;;;;;;2.90;64.80;-23897.16;5073777;28;20200;-72
2022/01/22 10:43:52;;;;;;;5.83;2.67;;;;;;;2.98;62.83;-23899.44;5055657;28;20178;-72
2022/01/22 10:46:21;;;;;;;5.13;2.60;;;;;;;2.89;64.54;-23896.72;5055872;28;20589;-73
2022/01/22 10:49:14;;;;;;;4.90;2.87;;;;;;;2.66;64.44;-23890.31;5073936;28;20180;-70
2022/01/22 10:52:11;;;;;;;4.60;2.50;;;;;;;2.42;65.58;-23883.44;5070358;28;20189;-73
2022/01/22 10:54:38;;;;;;;5.23;2.70;;;;;;;2.15;62.72;-23876.03;5057247;28;20348;-72
2022/01/22 10:57:14;;;;;;;3.13;2.40;;;;;;;2.15;63.53;-23876.03;5073542;28;20272;-72
2022/01/22 10:59:51;;;;;;;6.63;2.93;;;;;;;1.56;63.88;-23859.16;5072949;28;20662;-72
2022/01/22 11:02:29;;;;;;;5.73;2.90;;;;;;;1.79;64.88;-23865.75;5073237;28;20310;-72
2022/01/22 11:04:55;;;;;;;5.23;2.50;;;;;;;1.40;65.13;-23854.75;5073501;28;20229;-72
2022/01/22 11:07:21;;;;;;;4.00;2.80;;;;;;;1.82;66.46;-23866.59;5055418;28;20191;-73
2022/01/22 11:09:47;;;;;;;4.53;2.90;;;;;;;1.97;67.50;-23870.75;5073187;28;20253;-72
2022/01/22 11:12:13;;;;;;;7.13;3.17;;;;;;;2.31;69.24;-23880.47;5076335;28;20603;-72
2022/01/22 11:14:40;;;;;;;5.57;2.67;;;;;;;2.19;64.77;-23877.16;5084021;28;20263;-72
2022/01/22 11:17:07;;;;;;;4.20;2.97;;;;;;;2.35;66.18;-23881.47;5085207;28;20216;-70
2022/01/22 11:19:34;;;;;;;2.63;2.30;;;;;;;2.09;60.90;-23874.31;5057002;28;20180;-71
2022/01/22 11:22:07;;;;;;;3.00;2.40;;;;;;;2.19;59.89;-23877.03;5081319;28;20173;-73
2022/01/22 11:24:36;;;;;;;3.27;2.33;;;;;;;2.03;59.79;-23872.47;5073357;28;20208;-70
2022/01/22 11:27:03;;;;;;;3.90;2.50;;;;;;;2.80;58.99;-23894.31;5073057;28;20250;-73
2022/01/22 11:29:36;;;;;;;3.70;2.40;;;;;;;2.31;60.98;-23880.47;5078725;28;20715;-73
2022/01/22 11:32:12;;;;;;;4.37;2.80;;;;;;;1.97;60.92;-23870.88;5079413;28;20181;-72
2022/01/22 11:34:40;;;;;;;6.80;2.60;;;;;;;2.23;62.27;-23878.31;5081915;28;20650;-73
2022/01/22 11:37:24;;;;;;;7.30;2.60;;;;;;;2.14;63.65;-23875.59;5081281;28;20204;-71
2022/01/22 11:40:27;;;;;;;5.77;2.70;;;;;;;1.84;65.09;-23867.19;5086024;28;20216;-72
2022/01/22 11:45:34;;;;;;;5.10;2.80;;;;;;;1.49;65.86;-23857.16;5074504;28;20205;-71
2022/01/22 11:48:26;;;;;;;5.50;3.00;;;;;;;2.30;66.79;-23880.16;5079134;28;20202;-74
2022/01/22 11:51:13;;;;;;;5.50;3.10;;;;;;;2.49;67.40;-23885.44;5083083;28;20179;-73
2022/01/22 11:53:39;;;;;;;8.03;3.20;;;;;;;2.29;62.83;-23879.88;5079254;28;20191;-72
2022/01/22 11:56:10;;;;;;;4.93;2.73;;;;;;;2.13;60.49;-23875.31;5083260;28;20187;-71
2022/01/22 11:58:59;;;;;;;3.70;2.70;;;;;;;2.35;59.59;-23881.47;5082207;28;20196;-71
2022/01/22 12:01:38;;;;;;;4.83;2.80;;;;;;;2.62;58.85;-23889.16;5064360;28;20337;-73
2022/01/22 12:04:05;;;;;;;4.27;2.90;;;;;;;2.29;60.60;-23879.75;5077646;28;20187;-71
2022/01/22 12:06:30;;;;;;;6.40;3.10;;;;;;;1.62;61.53;-23861.03;5082242;28;20255;-71
2022/01/22 12:09:24;;;;;;;7.83;3.27;;;;;;;2.16;59.73;-23876.31;5085220;28;20654;-73
2022/01/22 12:14:53;;;;;;;3.23;2.70;;;;;;;2.79;56.15;-23894.00;5081440;28;20296;-73
2022/01/22 12:17:39;;;;;;;5.00;3.03;;;;;;;2.39;54.85;-23882.75;5077891;28;20184;-73
2022/01/22 12:20:18;;;;;;;3.90;3.00;;;;;;;2.72;54.44;-23892.03;5081190;28;20266;-71
2022/01/22 12:22:43;;;;;;;4.63;3.13;;;;;;;3.03;55.42;-23900.72;5057137;28;20172;-71
2022/01/22 12:25:11;;;;;;;4.07;2.87;;;;;;;3.00;53.91;-23899.88;5079009;28;20181;-72
2022/01/22 12:27:45;;;;;;;4.33;3.03;;;;;;;3.10;55.96;-23902.84;5076567;28;20205;-70
2022/01/22 12:30:11;;;;;;;4.83;3.27;;;;;;;2.82;55.88;-23894.72;5074907;28;20185;-72
2022/01/22 12:32:47;;;;;;;5.27;3.03;;;;;;;2.95;54.99;-23898.44;5073245;28;20228;-73
2022/01/22 12:35:17;;;;;;;5.80;3.20;;;;;;;2.61;55.23;-23889.03;5073221;28;20182;-72
2022/01/22 12:37:48;;;;;;;4.83;2.80;;;;;;;2.95;55.77;-23898.59;5072382;28;20177;-71
2022/01/22 12:40:27;;;;;;;4.97;3.40;;;;;;;3.04;57.47;-23901.00;5055464;28;20216;-71
2022/01/22 12:43:08;;;;;;;4.00;3.10;;;;;;;3.32;55.90;-23909.00;5055867;28;20267;-73
2022/01/22 12:45:35;;;;;;;4.70;2.50;;;;;;;3.33;54.70;-23909.28;5074958;28;20165;-73
2022/01/22 12:48:02;;;;;;;3.50;2.70;;;;;;;2.89;53.61;-23896.88;5053381;28;20220;-72
2022/01/22 12:50:31;;;;;;;6.13;3.03;;;;;;;2.61;55.48;-23889.03;5072336;28;20174;-72
2022/01/22 12:53:03;;;;;;;5.97;3.10;;;;;;;2.46;54.90;-23884.75;5073525;28;20198;-70
2022/01/22 12:58:38;;;;;;;3.87;2.87;;;;;;;2.62;53.40;-23889.31;5012066;28;20606;-71
2022/01/22 13:01:09;;;;;;;4.90;2.77;;;;;;;2.61;54.49;-23889.03;5009765;28;20187;-72
2022/01/22 13:03:37;;;;;;;5.43;3.10;;;;;;;2.97;55.07;-23899.16;5044540;28;20735;-72
2022/01/22 13:06:04;;;;;;;4.73;3.17;;;;;;;2.75;55.72;-23892.72;5063347;28;20744;-71
2022/01/22 13:08:32;;;;;;;5.77;3.00;;;;;;;2.77;57.50;-23893.31;5074257;28;20188;-72
2022/01/22 13:11:01;;;;;;;3.20;2.83;;;;;;;2.23;58.70;-23878.16;5072719;28;20201;-73
2022/01/22 13:13:28;;;;;;;4.30;3.07;;;;;;;2.63;56.23;-23889.44;5071844;28;20325;-72
2022/01/22 13:16:07;;;;;;;4.87;2.67;;;;;;;2.95;55.12;-23898.44;5073999;28;20266;-71
2022/01/22 13:18:56;;;;;;;5.23;3.10;;;;;;;2.81;55.33;-23894.44;5073555;28;20183;-72
2022/01/22 13:21:23;;;;;;;5.30;3.20;;;;;;;2.36;56.75;-23881.88;5073829;28;20645;-72